createdAt,value
2022-09-01T00:01:53.745Z,16.30
2022-09-01T00:04:25.946Z,16.30
2022-09-01T00:06:55.154Z,16.30
2022-09-01T00:09:23.801Z,16.30
2022-09-01T00:11:53.829Z,16.20
2022-09-01T00:14:30.110Z,16.30
2022-09-01T00:17:05.242Z,16.30
2022-09-01T00:19:33.510Z,16.30
2022-09-01T00:22:01.368Z,16.40
2022-09-01T00:24:28.903Z,16.20
2022-09-01T00:26:56.945Z,16.20
2022-09-01T00:29:26.077Z,16.20
2022-09-01T00:31:53.101Z,16.30
2022-09-01T00:34:20.213Z,16.20
2022-09-01T00:36:48.225Z,16.30
2022-09-01T00:39:15.679Z,16.30
2022-09-01T00:41:44.927Z,16.30
2022-09-01T00:44:15.716Z,16.40
2022-09-01T00:46:49.767Z,16.30
2022-09-01T00:49:31.673Z,16.30
2022-09-01T00:52:27.390Z,16.40
2022-09-01T00:55:00.254Z,16.40
2022-09-01T00:57:28.030Z,16.40
2022-09-01T01:00:00.659Z,16.40
2022-09-01T01:02:28.201Z,16.30
2022-09-01T01:04:57.910Z,16.30
2022-09-01T01:07:27.253Z,16.30
2022-09-01T01:09:54.423Z,16.20
2022-09-01T01:12:21.774Z,16.20
2022-09-01T01:14:50.568Z,16.20
2022-09-01T01:17:20.318Z,16.20
2022-09-01T01:20:10.341Z,16.10
2022-09-01T01:23:03.239Z,16.10
2022-09-01T01:25:35.824Z,16.10
2022-09-01T01:28:06.841Z,16.00
2022-09-01T01:30:36.983Z,16.00
2022-09-01T01:33:05.102Z,16.00
2022-09-01T01:35:33.689Z,16.00
2022-09-01T01:38:02.552Z,16.00
2022-09-01T01:40:30.102Z,16.00
2022-09-01T01:42:57.297Z,16.00
2022-09-01T01:45:26.061Z,16.00
2022-09-01T01:47:53.882Z,15.90
2022-09-01T01:50:31.695Z,15.90
2022-09-01T01:53:00.054Z,15.80
2022-09-01T01:55:29.057Z,15.80
2022-09-01T01:57:59.854Z,15.70
2022-09-01T02:00:34.669Z,15.70
2022-09-01T02:03:03.042Z,15.70
2022-09-01T02:05:33.173Z,15.70
2022-09-01T02:08:06.036Z,15.70
2022-09-01T02:10:39.005Z,15.70
2022-09-01T02:13:07.748Z,15.70
2022-09-01T02:15:44.434Z,15.70
2022-09-01T02:18:24.676Z,15.70
2022-09-01T02:20:52.916Z,15.70
2022-09-01T02:23:24.451Z,15.70
2022-09-01T02:26:17.432Z,15.80
2022-09-01T02:28:55.561Z,15.70
2022-09-01T02:31:28.175Z,15.70
2022-09-01T02:33:58.516Z,15.70
2022-09-01T02:36:25.722Z,15.70
2022-09-01T02:38:56.661Z,15.80
2022-09-01T02:41:27.238Z,15.80
2022-09-01T02:43:54.797Z,15.80
2022-09-01T02:46:23.584Z,15.90
2022-09-01T02:48:53.688Z,15.70
2022-09-01T02:51:25.587Z,15.70
2022-09-01T02:53:54.060Z,15.70
2022-09-01T02:56:25.657Z,15.80
2022-09-01T02:58:54.712Z,15.60
2022-09-01T03:01:29.662Z,15.60
2022-09-01T03:04:05.785Z,15.60
2022-09-01T03:06:34.424Z,15.60
2022-09-01T03:09:03.349Z,15.60
2022-09-01T03:11:32.529Z,15.60
2022-09-01T03:13:59.799Z,15.80
2022-09-01T03:16:30.570Z,15.90
2022-09-01T03:18:59.202Z,16.00
2022-09-01T03:21:26.835Z,16.00
2022-09-01T03:23:54.246Z,16.10
2022-09-01T03:26:22.543Z,16.20
2022-09-01T03:28:52.971Z,16.20
2022-09-01T03:31:20.857Z,16.20
2022-09-01T03:33:50.000Z,16.20
2022-09-01T03:36:25.503Z,16.40
2022-09-01T03:38:53.470Z,16.30
2022-09-01T03:41:25.214Z,16.30
2022-09-01T03:43:58.118Z,16.20
2022-09-01T03:46:35.746Z,16.20
2022-09-01T03:49:07.741Z,16.30
2022-09-01T03:51:39.485Z,16.20
2022-09-01T03:54:08.510Z,16.20
2022-09-01T03:56:35.624Z,16.20
2022-09-01T03:59:02.989Z,16.10
2022-09-01T04:01:38.018Z,16.10
2022-09-01T04:04:06.726Z,16.10
2022-09-01T04:06:34.335Z,16.10
2022-09-01T04:09:03.237Z,16.00
2022-09-01T04:11:33.805Z,16.00
2022-09-01T04:14:02.051Z,16.00
2022-09-01T04:16:52.948Z,16.10
2022-09-01T04:19:26.133Z,16.20
2022-09-01T04:21:57.675Z,16.30
2022-09-01T04:24:28.806Z,16.20
2022-09-01T04:26:58.714Z,16.30
2022-09-01T04:29:29.784Z,16.20
2022-09-01T04:32:07.734Z,16.10
2022-09-01T04:34:40.378Z,16.20
2022-09-01T04:37:13.201Z,16.20
2022-09-01T04:39:51.301Z,16.10
2022-09-01T04:42:24.073Z,16.20
2022-09-01T04:44:53.975Z,16.20
2022-09-01T04:47:31.718Z,16.10
2022-09-01T04:50:13.866Z,16.10
2022-09-01T04:52:45.497Z,16.10
2022-09-01T04:55:24.901Z,16.20
2022-09-01T04:57:52.354Z,16.20
2022-09-01T05:00:25.018Z,16.20
2022-09-01T05:03:03.441Z,16.20
2022-09-01T05:05:46.641Z,16.10
2022-09-01T05:08:23.612Z,16.20
2022-09-01T05:10:55.864Z,16.10
2022-09-01T05:13:35.713Z,16.10
2022-09-01T05:16:12.949Z,16.20
2022-09-01T05:18:45.124Z,16.10
2022-09-01T05:21:15.862Z,16.10
2022-09-01T05:23:44.996Z,16.10
2022-09-01T05:26:18.175Z,16.00
2022-09-01T05:28:49.274Z,16.00
2022-09-01T05:31:20.119Z,15.90
2022-09-01T05:33:50.008Z,16.00
2022-09-01T05:36:23.076Z,15.90
2022-09-01T05:38:52.362Z,15.90
2022-09-01T05:41:21.122Z,15.90
2022-09-01T05:43:55.079Z,15.90
2022-09-01T05:46:28.243Z,15.90
2022-09-01T05:48:57.435Z,15.90
2022-09-01T05:51:45.801Z,15.90
2022-09-01T05:54:23.281Z,15.90
2022-09-01T05:56:50.450Z,16.30
2022-09-01T05:59:28.154Z,16.40
2022-09-01T06:02:00.848Z,16.50
2022-09-01T06:04:30.010Z,16.50
2022-09-01T06:07:07.716Z,16.40
2022-09-01T06:09:40.490Z,16.70
2022-09-01T06:12:09.702Z,17.00
2022-09-01T06:14:36.738Z,17.00
2022-09-01T06:17:03.953Z,17.00
2022-09-01T06:19:36.871Z,16.80
2022-09-01T06:22:05.072Z,16.70
2022-09-01T06:24:32.536Z,16.80
2022-09-01T06:26:59.772Z,17.00
2022-09-01T06:29:26.993Z,17.00
2022-09-01T06:31:54.606Z,17.10
2022-09-01T06:34:21.606Z,17.20
2022-09-01T06:36:51.755Z,17.20
2022-09-01T06:39:21.044Z,17.20
2022-09-01T06:41:53.397Z,17.40
2022-09-01T06:44:25.019Z,17.60
2022-09-01T06:47:02.002Z,17.80
2022-09-01T06:49:40.167Z,17.70
2022-09-01T06:52:13.842Z,17.80
2022-09-01T06:54:43.918Z,17.80
2022-09-01T06:59:59.545Z,18.00
2022-09-01T07:02:27.277Z,18.00
2022-09-01T07:08:07.339Z,18.00
2022-09-01T07:19:48.253Z,18.80
2022-09-01T07:22:35.712Z,18.80
2022-09-01T07:25:17.923Z,18.80
2022-09-01T07:28:15.652Z,18.80
2022-09-01T07:30:48.644Z,19.00
2022-09-01T07:42:32.053Z,18.80
2022-09-01T07:48:04.647Z,19.50
2022-09-01T07:50:41.424Z,19.90
2022-09-01T07:53:28.146Z,20.20
2022-09-01T07:55:56.515Z,20.00
2022-09-01T07:58:27.902Z,20.70
2022-09-01T08:01:04.045Z,20.70
2022-09-01T08:03:31.495Z,20.30
2022-09-01T08:06:09.078Z,20.60
2022-09-01T08:08:40.177Z,21.20
2022-09-01T08:11:08.697Z,21.50
2022-09-01T08:13:41.982Z,21.50
2022-09-01T08:16:18.596Z,21.50
2022-09-01T08:18:48.830Z,21.90
2022-09-01T08:21:28.685Z,21.70
2022-09-01T08:24:02.968Z,21.30
2022-09-01T08:26:33.831Z,21.50
2022-09-01T08:29:03.018Z,22.00
2022-09-01T08:31:36.199Z,22.00
2022-09-01T08:34:07.411Z,22.00
2022-09-01T08:36:35.581Z,21.80
2022-09-01T08:39:03.493Z,21.40
2022-09-01T08:41:46.851Z,21.30
2022-09-01T08:44:38.172Z,21.40
2022-09-01T08:47:08.303Z,21.60
2022-09-01T08:49:45.982Z,21.80
2022-09-01T08:52:38.359Z,22.50
2022-09-01T08:55:35.574Z,22.60
2022-09-01T08:58:04.854Z,22.30
2022-09-01T09:01:02.373Z,22.80
2022-09-01T09:03:41.764Z,22.90
2022-09-01T09:06:25.898Z,22.60
2022-09-01T09:09:05.033Z,23.10
2022-09-01T09:11:54.026Z,22.80
2022-09-01T09:14:47.843Z,24.30
2022-09-01T09:17:19.942Z,25.90
2022-09-01T09:19:46.966Z,24.80
2022-09-01T09:22:16.700Z,24.20
2022-09-01T09:25:19.150Z,23.70
2022-09-01T09:28:00.780Z,24.40
2022-09-01T09:30:29.700Z,24.80
2022-09-01T09:35:51.460Z,24.70
2022-09-01T09:38:28.756Z,23.50
2022-09-01T09:43:49.933Z,26.60
2022-09-01T09:46:32.029Z,28.40
2022-09-01T09:49:34.358Z,28.10
2022-09-01T09:52:10.323Z,27.60
2022-09-01T09:54:40.048Z,27.80
2022-09-01T09:57:16.341Z,27.90
2022-09-01T10:00:02.977Z,28.90
2022-09-01T10:02:43.172Z,29.20
2022-09-01T10:05:52.002Z,27.60
2022-09-01T10:08:37.430Z,26.50
2022-09-01T10:11:08.133Z,26.00
2022-09-01T10:13:36.684Z,25.50
2022-09-01T10:16:10.485Z,25.00
2022-09-01T10:18:42.159Z,25.10
2022-09-01T10:21:17.185Z,25.10
2022-09-01T10:23:44.948Z,24.40
2022-09-01T10:26:32.143Z,24.90
2022-09-01T10:29:15.857Z,24.80
2022-09-01T10:31:43.469Z,24.80
2022-09-01T10:34:19.368Z,24.70
2022-09-01T10:36:54.941Z,24.40
2022-09-01T10:39:29.476Z,24.40
2022-09-01T10:42:07.547Z,24.00
2022-09-01T10:44:55.267Z,23.80
2022-09-01T10:47:33.667Z,23.70
2022-09-01T10:50:24.421Z,24.70
2022-09-01T10:53:04.993Z,24.70
2022-09-01T10:55:44.072Z,25.00
2022-09-01T11:01:49.586Z,25.10
2022-09-01T11:04:40.140Z,24.90
2022-09-01T11:07:50.704Z,25.60
2022-09-01T11:10:50.103Z,25.80
2022-09-01T11:13:31.796Z,25.50
2022-09-01T11:19:17.953Z,25.80
2022-09-01T11:21:45.079Z,25.70
2022-09-01T11:24:44.236Z,26.00
2022-09-01T11:27:33.596Z,26.20
2022-09-01T11:30:07.693Z,26.30
2022-09-01T11:32:38.263Z,28.50
2022-09-01T11:35:18.328Z,30.00
2022-09-01T11:37:49.314Z,31.10
2022-09-01T11:40:32.768Z,31.60
2022-09-01T11:43:16.198Z,31.80
2022-09-01T11:46:15.939Z,29.70
2022-09-01T11:48:51.798Z,28.00
2022-09-01T11:51:21.455Z,27.20
2022-09-01T11:53:50.435Z,26.60
2022-09-01T11:56:24.693Z,26.40
2022-09-01T11:58:51.856Z,26.10
2022-09-01T12:01:43.798Z,25.60
2022-09-01T12:04:38.022Z,25.50
2022-09-01T12:07:10.861Z,24.90
2022-09-01T12:09:44.414Z,25.50
2022-09-01T12:12:38.939Z,26.70
2022-09-01T12:15:18.841Z,29.10
2022-09-01T12:17:47.438Z,30.50
2022-09-01T12:20:29.497Z,31.40
2022-09-01T12:22:58.895Z,31.80
2022-09-01T12:25:31.921Z,32.40
2022-09-01T12:28:06.245Z,32.80
2022-09-01T12:30:39.658Z,33.20
2022-09-01T12:33:25.042Z,33.10
2022-09-01T12:35:55.021Z,32.60
2022-09-01T12:38:26.004Z,34.70
2022-09-01T12:40:55.357Z,35.20
2022-09-01T12:43:29.613Z,34.80
2022-09-01T12:45:59.984Z,35.90
2022-09-01T12:48:29.764Z,35.80
2022-09-01T12:51:01.194Z,36.30
2022-09-01T12:53:32.495Z,35.00
2022-09-01T12:56:22.789Z,35.80
2022-09-01T12:58:53.972Z,35.70
2022-09-01T13:01:32.393Z,35.60
2022-09-01T13:04:20.631Z,36.10
2022-09-01T13:06:49.764Z,37.10
2022-09-01T13:09:16.866Z,37.10
2022-09-01T13:14:31.880Z,36.40
2022-09-01T13:16:59.199Z,36.80
2022-09-01T13:19:28.675Z,35.00
2022-09-01T13:21:57.558Z,36.70
2022-09-01T13:24:28.548Z,36.30
2022-09-01T13:29:45.646Z,34.70
2022-09-01T13:32:21.303Z,35.20
2022-09-01T13:34:51.801Z,36.20
2022-09-01T13:37:21.350Z,36.30
2022-09-01T13:39:48.721Z,35.10
2022-09-01T13:42:16.496Z,35.00
2022-09-01T13:44:44.247Z,33.50
2022-09-01T13:50:09.661Z,28.70
2022-09-01T13:52:43.194Z,27.40
2022-09-01T13:55:16.494Z,28.00
2022-09-01T13:57:43.686Z,31.10
2022-09-01T14:00:15.710Z,30.30
2022-09-01T14:02:53.138Z,28.50
2022-09-01T14:05:24.018Z,27.10
2022-09-01T14:07:51.803Z,27.50
2022-09-01T14:10:20.302Z,30.60
2022-09-01T14:12:48.410Z,33.60
2022-09-01T14:15:19.905Z,35.60
2022-09-01T14:17:52.423Z,37.10
2022-09-01T14:20:22.213Z,36.80
2022-09-01T14:22:50.688Z,36.90
2022-09-01T14:25:20.341Z,38.90
2022-09-01T14:27:48.966Z,38.80
2022-09-01T14:30:20.478Z,37.80
2022-09-01T14:32:48.477Z,38.90
2022-09-01T14:35:16.931Z,38.10
2022-09-01T14:37:45.636Z,36.30
2022-09-01T14:40:18.226Z,36.00
2022-09-01T14:42:49.296Z,33.40
2022-09-01T14:45:22.604Z,30.80
2022-09-01T14:47:53.398Z,30.80
2022-09-01T14:50:23.188Z,33.60
2022-09-01T14:52:53.598Z,33.50
2022-09-01T14:55:25.511Z,32.20
2022-09-01T14:57:52.934Z,31.50
2022-09-01T15:00:20.253Z,30.40
2022-09-01T15:02:48.185Z,28.90
2022-09-01T15:05:15.909Z,28.20
2022-09-01T15:07:43.885Z,27.70
2022-09-01T15:10:15.944Z,26.70
2022-09-01T15:12:51.970Z,26.70
2022-09-01T15:15:19.178Z,26.30
2022-09-01T15:17:46.681Z,27.50
2022-09-01T15:20:32.666Z,27.70
2022-09-01T15:23:00.972Z,26.70
2022-09-01T15:25:28.001Z,25.90
2022-09-01T15:27:55.095Z,26.10
2022-09-01T15:30:22.110Z,26.00
2022-09-01T15:32:51.338Z,25.80
2022-09-01T15:35:19.429Z,25.90
2022-09-01T15:37:47.902Z,25.70
2022-09-01T15:40:16.118Z,25.80
2022-09-01T15:42:43.198Z,25.70
2022-09-01T15:45:14.849Z,25.60
2022-09-01T15:47:45.635Z,25.60
2022-09-01T15:50:18.342Z,25.20
2022-09-01T15:52:49.868Z,25.10
2022-09-01T15:55:19.676Z,24.80
2022-09-01T15:57:47.137Z,24.60
2022-09-01T16:00:15.108Z,24.50
2022-09-01T16:02:43.068Z,24.50
2022-09-01T16:05:10.598Z,24.50
2022-09-01T16:07:37.789Z,24.50
2022-09-01T16:10:06.293Z,24.30
2022-09-01T16:12:35.769Z,24.40
2022-09-01T16:15:03.674Z,24.30
2022-09-01T16:17:51.127Z,24.30
2022-09-01T16:20:28.530Z,24.20
2022-09-01T16:22:58.497Z,24.10
2022-09-01T16:25:33.342Z,24.00
2022-09-01T16:28:07.325Z,24.00
2022-09-01T16:30:34.994Z,24.90
2022-09-01T16:33:04.224Z,26.30
2022-09-01T16:35:44.857Z,26.20
2022-09-01T16:38:25.049Z,25.70
2022-09-01T16:41:09.636Z,26.00
2022-09-01T16:43:48.678Z,26.50
2022-09-01T16:46:23.424Z,26.00
2022-09-01T16:48:58.358Z,25.90
2022-09-01T16:51:39.093Z,25.60
2022-09-01T16:54:20.934Z,25.90
2022-09-01T16:56:48.058Z,26.20
2022-09-01T16:59:37.837Z,25.90
2022-09-01T17:02:15.911Z,24.80
2022-09-01T17:05:03.046Z,24.40
2022-09-01T17:07:47.530Z,23.90
2022-09-01T17:10:33.427Z,23.70
2022-09-01T17:13:16.544Z,23.50
2022-09-01T17:15:48.105Z,23.30
2022-09-01T17:18:29.704Z,23.20
2022-09-01T17:21:07.466Z,23.00
2022-09-01T17:23:40.849Z,22.80
2022-09-01T17:26:17.162Z,22.60
2022-09-01T17:28:55.470Z,22.60
2022-09-01T17:31:33.969Z,22.30
2022-09-01T17:34:18.672Z,22.20
2022-09-01T17:36:56.384Z,22.00
2022-09-01T17:40:00.540Z,21.90
2022-09-01T17:42:42.117Z,21.70
2022-09-01T17:45:29.029Z,21.70
2022-09-01T17:48:20.750Z,21.60
2022-09-01T17:51:25.674Z,21.50
2022-09-01T17:54:37.079Z,21.40
2022-09-01T17:57:32.015Z,21.20
2022-09-01T18:00:22.993Z,21.10
2022-09-01T18:02:58.908Z,21.00
2022-09-01T18:05:27.260Z,20.80
2022-09-01T18:08:40.273Z,20.70
2022-09-01T18:11:21.526Z,20.60
2022-09-01T18:13:53.169Z,20.60
2022-09-01T18:16:31.515Z,20.50
2022-09-01T18:19:05.605Z,20.40
2022-09-01T18:21:40.075Z,20.30
2022-09-01T18:24:43.872Z,20.10
2022-09-01T18:27:12.854Z,20.10
2022-09-01T18:29:40.634Z,19.90
2022-09-01T18:32:12.385Z,19.70
2022-09-01T18:35:02.510Z,19.70
2022-09-01T18:38:27.614Z,19.60
2022-09-01T18:41:32.210Z,19.60
2022-09-01T18:44:15.918Z,19.40
2022-09-01T18:46:53.964Z,19.20
2022-09-01T18:49:46.646Z,19.10
2022-09-01T18:52:22.512Z,18.90
2022-09-01T18:55:10.670Z,19.00
2022-09-01T18:57:39.989Z,18.90
2022-09-01T19:00:22.026Z,18.80
2022-09-01T19:03:01.866Z,18.60
2022-09-01T19:05:38.315Z,18.40
2022-09-01T19:08:34.791Z,18.50
2022-09-01T19:11:06.894Z,18.40
2022-09-01T19:13:53.286Z,18.20
2022-09-01T19:16:55.329Z,18.10
2022-09-01T19:19:46.698Z,18.00
2022-09-01T19:22:23.405Z,17.90
2022-09-01T19:25:19.701Z,17.80
2022-09-01T19:27:59.662Z,17.80
2022-09-01T19:30:26.826Z,17.70
2022-09-01T19:32:54.495Z,17.70
2022-09-01T19:35:21.986Z,17.90
2022-09-01T19:37:51.225Z,17.90
2022-09-01T19:40:27.362Z,17.70
2022-09-01T19:43:17.687Z,17.60
2022-09-01T19:45:46.160Z,17.60
2022-09-01T19:48:18.446Z,17.60
2022-09-01T19:50:48.886Z,17.50
2022-09-01T19:53:27.265Z,17.50
2022-09-01T19:56:01.079Z,17.30
2022-09-01T19:58:44.028Z,17.30
2022-09-01T20:01:15.945Z,17.30
2022-09-01T20:03:53.604Z,17.10
2022-09-01T20:06:29.477Z,17.10
2022-09-01T20:09:15.305Z,17.10
2022-09-01T20:11:55.715Z,17.00
2022-09-01T20:14:41.829Z,17.00
2022-09-01T20:17:30.784Z,17.00
2022-09-01T20:20:14.862Z,16.90
2022-09-01T20:22:41.826Z,16.70
2022-09-01T20:25:17.953Z,16.70
2022-09-01T20:27:56.109Z,16.70
2022-09-01T20:30:31.196Z,16.60
2022-09-01T20:33:08.749Z,16.60
2022-09-01T20:35:44.399Z,16.60
2022-09-01T20:38:42.233Z,16.50
2022-09-01T20:41:20.050Z,16.50
2022-09-01T20:43:51.795Z,16.50
2022-09-01T20:46:20.602Z,16.50
2022-09-01T20:48:48.205Z,16.50
2022-09-01T20:51:20.593Z,16.40
2022-09-01T20:54:18.455Z,16.30
2022-09-01T20:57:09.624Z,16.30
2022-09-01T21:00:22.570Z,16.20
2022-09-01T21:03:10.025Z,16.30
2022-09-01T21:05:56.573Z,16.30
2022-09-01T21:09:01.253Z,16.20
2022-09-01T21:11:52.495Z,16.20
2022-09-01T21:14:38.481Z,16.30
2022-09-01T21:17:39.680Z,16.30
2022-09-01T21:20:09.835Z,16.10
2022-09-01T21:22:36.830Z,16.20
2022-09-01T21:25:04.756Z,16.10
2022-09-01T21:27:40.174Z,16.00
2022-09-01T21:30:14.065Z,16.00
2022-09-01T21:32:41.815Z,15.80
2022-09-01T21:35:13.261Z,15.80
2022-09-01T21:37:41.001Z,15.70
2022-09-01T21:40:09.211Z,15.60
2022-09-01T21:42:41.093Z,15.50
2022-09-01T21:45:12.080Z,15.40
2022-09-01T21:47:40.036Z,15.40
2022-09-01T21:50:07.858Z,15.40
2022-09-01T21:52:34.865Z,15.50
2022-09-01T21:55:01.968Z,15.50
2022-09-01T21:57:28.887Z,15.50
2022-09-01T21:59:55.842Z,15.60
2022-09-01T22:02:22.822Z,15.50
2022-09-01T22:04:56.231Z,15.50
2022-09-01T22:07:23.110Z,15.40
2022-09-01T22:09:50.372Z,15.40
2022-09-01T22:12:17.273Z,15.50
2022-09-01T22:14:44.477Z,15.60
2022-09-01T22:17:11.423Z,15.60
2022-09-01T22:19:38.529Z,15.50
2022-09-01T22:22:05.513Z,15.40
2022-09-01T22:24:32.799Z,15.40
2022-09-01T22:26:59.854Z,15.40
2022-09-01T22:29:27.280Z,15.40
2022-09-01T22:31:54.216Z,15.40
2022-09-01T22:34:21.112Z,15.40
2022-09-01T22:36:49.766Z,15.40
2022-09-01T22:39:19.397Z,15.40
2022-09-01T22:41:48.945Z,15.40
2022-09-01T22:44:16.006Z,15.40
2022-09-01T22:46:43.216Z,15.40
2022-09-01T22:49:10.713Z,15.20
2022-09-01T22:51:42.439Z,15.20
2022-09-01T22:54:10.973Z,15.10
2022-09-01T22:56:39.501Z,15.10
2022-09-01T22:59:10.991Z,15.10
2022-09-01T23:01:42.435Z,15.10
2022-09-01T23:04:34.745Z,15.10
2022-09-01T23:07:01.744Z,15.20
2022-09-01T23:09:29.429Z,15.10
2022-09-01T23:11:56.717Z,15.20
2022-09-01T23:14:23.703Z,15.20
2022-09-01T23:16:51.849Z,15.20
2022-09-01T23:19:20.790Z,15.10
2022-09-01T23:21:48.313Z,15.10
2022-09-01T23:24:16.296Z,15.20
2022-09-01T23:26:47.559Z,15.10
2022-09-01T23:29:14.622Z,15.20
2022-09-01T23:31:43.674Z,15.20
2022-09-01T23:34:10.655Z,15.20
2022-09-01T23:36:37.611Z,15.10
2022-09-01T23:39:05.810Z,15.10
2022-09-01T23:41:34.891Z,15.10
2022-09-01T23:44:04.449Z,15.00
2022-09-01T23:46:36.966Z,14.90
2022-09-01T23:49:04.952Z,14.80
2022-09-01T23:51:31.957Z,14.80
2022-09-01T23:53:59.668Z,14.80
2022-09-01T23:56:28.384Z,14.70
2022-09-01T23:58:56.092Z,14.70
